Time;durP1;ratioP1;P1;durP2;ratioP2;P2;SDS_P1;SDS_P2;PMS_P1;PMS_P2;Temp;Humidity;BMP_temperature;BMP_pressure;BME280_temperature;BME280_humidity;BME280_pressure;Samples;Min_cycle;Max_cycle;Signal;HPM_P1;HPM_P2
2021/08/25 00:02:47;;;;;;;10.10;5.68;;;15.10;99.90;;;;;;4848830;29;20038;-94
2021/08/25 00:05:48;;;;;;;11.73;5.38;;;15.20;99.90;;;;;;4932841;29;20032;-95
2021/08/25 00:08:58;;;;;;;8.70;5.45;;;15.20;99.90;;;;;;4935155;29;20046;-95
2021/08/25 00:11:59;;;;;;;13.57;6.40;;;15.20;99.90;;;;;;4956466;28;20047;-94
2021/08/25 00:15:18;;;;;;;;;;;;;;;;;;;;;
2021/08/25 00:21:33;;;;;;;;;;;;;;;;;;;;;
2021/08/25 00:24:03;;;;;;;70.95;28.52;;;15.30;99.90;;;;;;4946114;29;20098;-95
2021/08/25 00:26:40;;;;;;;73.88;28.15;;;15.30;99.90;;;;;;4937493;29;20122;-95
2021/08/25 00:30:07;;;;;;;70.47;30.02;;;15.30;99.90;;;;;;4913649;29;20040;-95
2021/08/25 00:33:32;;;;;;;;;;;;;;;;;;;;;
2021/08/25 00:39:20;;;;;;;62.15;26.23;;;15.30;99.90;;;;;;4810154;29;20034;-95
2021/08/25 00:42:26;;;;;;;;;;;;;;;;;;;;;
2021/08/25 00:47:56;;;;;;;53.30;25.15;;;15.20;99.90;;;;;;4810132;29;20522;-96
2021/08/25 00:50:44;;;;;;;48.85;22.00;;;15.20;99.90;;;;;;4797026;29;20049;-95
2021/08/25 00:53:25;;;;;;;50.50;20.85;;;15.20;99.90;;;;;;4793252;29;20047;-94
2021/08/25 00:56:00;;;;;;;45.20;20.50;;;15.20;99.90;;;;;;4810808;29;20142;-94
2021/08/25 00:59:00;;;;;;;44.60;19.88;;;15.20;99.90;;;;;;4804481;29;20031;-94
2021/08/25 01:01:46;;;;;;;41.88;19.65;;;15.10;99.90;;;;;;4866768;29;20124;-95
2021/08/25 01:29:35;;;;;;;22.42;10.13;;;15.10;99.90;;;;;;4883166;29;20063;-94
2021/08/25 01:32:06;;;;;;;13.00;9.20;;;15.10;99.90;;;;;;4870210;29;20037;-93
2021/08/25 01:34:54;;;;;;;17.95;10.27;;;15.00;99.90;;;;;;4882680;29;20032;-94
2021/08/25 01:37:21;;;;;;;15.77;10.23;;;15.00;99.90;;;;;;4866351;29;20058;-95
2021/08/25 01:39:48;;;;;;;17.17;10.18;;;15.10;99.90;;;;;;4866480;29;20551;-94
2021/08/25 01:42:14;;;;;;;17.55;10.57;;;15.10;99.90;;;;;;4866784;29;20021;-93
2021/08/25 01:44:40;;;;;;;15.48;9.70;;;15.00;99.90;;;;;;4866561;29;20556;-94
2021/08/25 01:47:06;;;;;;;17.13;9.95;;;15.00;99.90;;;;;;4866436;29;20384;-93
2021/08/25 01:49:31;;;;;;;20.13;11.57;;;15.00;99.90;;;;;;4850964;29;20037;-94
2021/08/25 01:51:58;;;;;;;24.83;12.85;;;15.00;99.90;;;;;;4866408;29;20087;-93
2021/08/25 01:54:25;;;;;;;20.23;11.88;;;15.00;99.90;;;;;;4867347;29;20752;-94
2021/08/25 01:56:51;;;;;;;21.23;12.85;;;15.00;99.90;;;;;;4891635;29;20245;-94
2021/08/25 01:59:17;;;;;;;19.88;11.57;;;15.00;99.90;;;;;;4943393;29;20035;-94
2021/08/25 02:01:43;;;;;;;20.15;11.73;;;15.00;99.90;;;;;;4927749;29;20051;-95
2021/08/25 02:04:09;;;;;;;21.48;11.38;;;15.00;99.90;;;;;;4927678;29;20095;-96
2021/08/25 02:06:34;;;;;;;17.98;11.10;;;15.00;99.90;;;;;;4927733;29;20023;-94
2021/08/25 02:09:00;;;;;;;21.17;11.52;;;15.00;99.90;;;;;;4927805;29;20020;-93
2021/08/25 02:11:26;;;;;;;18.83;9.90;;;15.00;99.90;;;;;;4927177;29;20023;-93
2021/08/25 02:13:53;;;;;;;23.10;11.35;;;15.00;99.90;;;;;;4943628;29;20039;-95
2021/08/25 02:16:19;;;;;;;17.65;10.63;;;15.00;99.90;;;;;;4943380;29;20086;-94
2021/08/25 02:18:45;;;;;;;18.67;10.50;;;15.00;99.90;;;;;;4926634;29;20027;-94
2021/08/25 02:21:11;;;;;;;15.77;9.68;;;15.00;99.90;;;;;;4926241;29;20115;-95
2021/08/25 02:23:37;;;;;;;18.73;10.30;;;15.00;99.90;;;;;;4942514;29;20054;-94
2021/08/25 02:26:03;;;;;;;12.48;7.53;;;15.00;99.90;;;;;;4926791;29;20020;-94
2021/08/25 02:28:28;;;;;;;16.20;8.48;;;15.00;99.90;;;;;;4942257;29;20163;-94
2021/08/25 02:30:54;;;;;;;15.10;7.97;;;15.00;99.90;;;;;;4941975;29;20028;-94
2021/08/25 02:33:20;;;;;;;13.45;8.07;;;14.90;99.90;;;;;;4941926;29;20379;-94
2021/08/25 02:35:46;;;;;;;15.80;9.52;;;14.90;99.90;;;;;;4942520;29;20063;-95
2021/08/25 02:38:12;;;;;;;15.73;10.65;;;14.90;99.90;;;;;;4952227;28;20074;-96
2021/08/25 02:40:41;;;;;;;18.00;9.27;;;14.90;99.90;;;;;;4964473;28;20026;-95
2021/08/25 02:43:07;;;;;;;13.40;8.70;;;14.90;99.90;;;;;;4965062;28;20485;-93
2021/08/25 02:45:33;;;;;;;12.98;8.27;;;14.90;99.90;;;;;;4964821;28;20019;-93
2021/08/25 02:47:59;;;;;;;11.38;7.32;;;14.80;99.90;;;;;;4964474;28;20050;-94
2021/08/25 02:50:24;;;;;;;11.30;7.00;;;14.90;99.90;;;;;;4964517;28;20054;-93
2021/08/25 02:52:50;;;;;;;9.07;6.00;;;14.90;99.90;;;;;;4965044;28;20034;-95
2021/08/25 02:55:16;;;;;;;12.82;7.60;;;14.80;99.90;;;;;;4965052;28;20041;-94
2021/08/25 02:57:42;;;;;;;9.18;6.32;;;14.80;99.90;;;;;;4965235;28;20054;-92
2021/08/25 03:00:08;;;;;;;9.40;6.40;;;14.80;99.90;;;;;;4964918;28;20034;-94
2021/08/25 03:02:34;;;;;;;10.57;6.30;;;14.80;99.90;;;;;;4964271;28;20023;-94
2021/08/25 03:05:00;;;;;;;7.20;5.47;;;14.80;99.90;;;;;;4964493;28;20122;-95
2021/08/25 03:07:26;;;;;;;8.05;5.28;;;14.70;99.90;;;;;;4965206;28;20033;-93
2021/08/25 03:09:51;;;;;;;9.20;5.95;;;14.70;99.90;;;;;;4965886;28;20503;-93
2021/08/25 03:12:17;;;;;;;9.40;5.55;;;14.70;99.90;;;;;;4969447;28;20062;-94
2021/08/25 03:14:43;;;;;;;11.10;5.72;;;14.70;99.90;;;;;;4982144;28;20063;-96
2021/08/25 03:17:10;;;;;;;10.73;4.82;;;14.70;99.90;;;;;;4965226;28;20034;-94
2021/08/25 03:19:36;;;;;;;7.63;4.75;;;14.70;99.90;;;;;;4964867;28;20033;-92
2021/08/25 03:22:02;;;;;;;8.10;4.97;;;14.70;99.90;;;;;;4964939;28;20054;-93
2021/08/25 03:24:28;;;;;;;8.57;5.38;;;14.70;99.90;;;;;;4967171;28;20037;-94
2021/08/25 03:26:53;;;;;;;8.52;5.05;;;14.60;99.90;;;;;;4964304;28;20468;-93
2021/08/25 03:29:19;;;;;;;8.13;5.32;;;14.60;99.90;;;;;;4963473;28;20034;-94
2021/08/25 03:31:45;;;;;;;8.90;4.82;;;14.60;99.90;;;;;;4963370;28;20022;-95
2021/08/25 03:34:11;;;;;;;11.32;5.22;;;14.60;99.90;;;;;;4963692;28;20507;-94
2021/08/25 03:36:39;;;;;;;8.82;4.80;;;14.60;99.90;;;;;;4963940;28;20031;-94
2021/08/25 03:39:05;;;;;;;7.13;4.30;;;14.60;99.90;;;;;;4963888;28;20022;-94
2021/08/25 03:41:32;;;;;;;7.10;4.13;;;14.60;99.90;;;;;;4963189;28;20070;-93
2021/08/25 03:43:58;;;;;;;8.40;4.38;;;14.60;99.90;;;;;;4963766;28;20054;-94
2021/08/25 03:46:24;;;;;;;7.35;4.38;;;14.60;99.90;;;;;;4962517;28;20030;-95
2021/08/25 03:48:49;;;;;;;5.50;3.63;;;14.60;99.90;;;;;;4963444;28;20049;-94
2021/08/25 03:51:15;;;;;;;6.65;3.78;;;14.60;99.90;;;;;;4941567;29;20051;-94
2021/08/25 03:53:41;;;;;;;7.97;3.38;;;14.60;99.90;;;;;;4940980;29;20190;-94
2021/08/25 03:56:06;;;;;;;4.20;3.25;;;14.50;99.90;;;;;;4941385;29;20063;-95
2021/08/25 03:58:32;;;;;;;5.60;3.55;;;14.50;99.90;;;;;;4941322;29;20024;-94
2021/08/25 04:00:58;;;;;;;5.97;2.97;;;14.50;99.90;;;;;;4941170;29;20054;-95
2021/08/25 04:03:23;;;;;;;6.30;3.47;;;14.50;99.90;;;;;;4941066;29;20024;-94
2021/08/25 04:05:49;;;;;;;7.38;3.53;;;14.50;99.90;;;;;;4940625;29;20398;-94
2021/08/25 04:08:15;;;;;;;6.53;3.10;;;14.50;99.90;;;;;;4940134;29;20036;-95
2021/08/25 04:10:41;;;;;;;5.30;3.00;;;14.50;99.90;;;;;;4940306;29;20028;-93
2021/08/25 04:13:07;;;;;;;5.57;3.20;;;14.50;99.90;;;;;;4940813;29;20195;-94
2021/08/25 04:15:33;;;;;;;4.53;2.90;;;14.40;99.90;;;;;;4940052;29;20036;-93
2021/08/25 04:17:58;;;;;;;4.47;2.72;;;14.40;99.90;;;;;;4940293;29;20039;-94
2021/08/25 04:20:24;;;;;;;4.85;2.72;;;14.40;99.90;;;;;;4939981;29;20047;-93
2021/08/25 04:22:50;;;;;;;4.00;2.80;;;14.40;99.90;;;;;;4940181;29;20031;-96
2021/08/25 04:25:15;;;;;;;3.08;1.85;;;14.40;99.90;;;;;;4940268;29;20036;-94
2021/08/25 04:27:41;;;;;;;2.42;1.90;;;14.40;99.90;;;;;;4940699;29;20028;-94
2021/08/25 04:30:07;;;;;;;4.45;2.50;;;14.40;99.90;;;;;;4940348;29;20067;-92
2021/08/25 04:32:33;;;;;;;4.65;2.13;;;14.40;99.90;;;;;;4940608;29;20023;-92
2021/08/25 04:34:59;;;;;;;2.95;1.77;;;14.40;99.90;;;;;;4940466;29;20042;-93
2021/08/25 04:37:24;;;;;;;3.40;2.30;;;14.40;99.90;;;;;;4940639;29;20027;-94
2021/08/25 04:39:50;;;;;;;2.95;2.08;;;14.30;99.90;;;;;;4941327;29;20032;-95
2021/08/25 04:42:16;;;;;;;3.50;2.30;;;14.30;99.90;;;;;;4940577;29;20083;-93
2021/08/25 04:44:41;;;;;;;3.17;1.88;;;14.30;99.90;;;;;;4926227;29;20504;-93
2021/08/25 04:47:07;;;;;;;3.22;2.13;;;14.30;99.90;;;;;;4921393;29;20122;-94
2021/08/25 04:49:33;;;;;;;3.78;2.28;;;14.30;99.90;;;;;;4925025;29;20118;-93
2021/08/25 04:51:58;;;;;;;3.72;1.98;;;14.30;99.90;;;;;;4943931;29;20074;-94
2021/08/25 04:54:24;;;;;;;3.90;1.75;;;14.30;99.90;;;;;;4955274;28;20068;-94
2021/08/25 04:56:50;;;;;;;4.60;2.40;;;14.30;99.90;;;;;;4949230;29;20496;-95
2021/08/25 04:59:16;;;;;;;3.83;2.60;;;14.30;99.90;;;;;;4939931;29;20032;-94
2021/08/25 05:01:42;;;;;;;3.95;2.30;;;14.30;99.90;;;;;;4939672;29;20035;-93
2021/08/25 05:04:07;;;;;;;3.42;2.17;;;14.30;99.90;;;;;;4939490;29;20063;-94
2021/08/25 05:06:33;;;;;;;4.97;2.75;;;14.30;99.90;;;;;;4939661;29;20079;-95
2021/08/25 05:08:59;;;;;;;3.95;2.42;;;14.30;99.90;;;;;;4939819;29;20028;-94
2021/08/25 05:11:24;;;;;;;2.80;2.05;;;14.30;99.90;;;;;;4939970;29;20042;-94
2021/08/25 05:13:50;;;;;;;2.25;1.40;;;14.30;99.90;;;;;;4940072;29;20122;-95
2021/08/25 05:16:16;;;;;;;1.75;0.88;;;14.30;99.90;;;;;;4939080;29;20047;-95
2021/08/25 05:18:42;;;;;;;1.63;1.10;;;14.30;99.90;;;;;;4939898;29;20175;-95
2021/08/25 05:21:08;;;;;;;1.85;1.33;;;14.30;99.90;;;;;;4939324;29;20375;-95
2021/08/25 05:23:35;;;;;;;1.98;1.40;;;14.20;99.90;;;;;;4939220;29;20047;-93
2021/08/25 05:26:02;;;;;;;2.28;1.48;;;14.20;99.90;;;;;;4939533;29;20517;-94
2021/08/25 05:28:28;;;;;;;2.55;1.40;;;14.20;99.90;;;;;;4939697;29;20028;-94
2021/08/25 05:30:54;;;;;;;2.70;1.90;;;14.30;99.90;;;;;;4940119;29;20064;-94
2021/08/25 05:33:19;;;;;;;3.70;2.22;;;14.20;99.90;;;;;;4940404;29;20024;-93
2021/08/25 05:35:46;;;;;;;3.00;1.85;;;14.20;99.90;;;;;;4939822;29;20039;-94
2021/08/25 05:38:11;;;;;;;3.92;1.80;;;14.30;99.90;;;;;;4939259;29;20027;-94
2021/08/25 05:40:37;;;;;;;3.75;2.00;;;14.30;99.90;;;;;;4939946;29;20035;-94
2021/08/25 05:43:03;;;;;;;3.83;2.08;;;14.30;99.90;;;;;;4938980;29;20027;-94
2021/08/25 05:45:28;;;;;;;3.90;2.30;;;14.30;99.90;;;;;;4939137;29;20051;-94
2021/08/25 05:53:08;;;;;;;3.35;1.92;;;14.30;99.90;;;;;;4931253;23;20087;-94
2021/08/25 05:55:36;;;;;;;3.70;1.75;;;14.30;99.90;;;;;;4925963;29;20038;-93
2021/08/25 05:58:04;;;;;;;2.70;1.42;;;14.30;99.90;;;;;;4924995;29;20024;-94
2021/08/25 06:00:29;;;;;;;3.40;1.80;;;14.30;99.90;;;;;;4924640;29;20112;-93
2021/08/25 06:02:55;;;;;;;2.15;1.48;;;14.30;99.90;;;;;;4924545;29;20064;-94
2021/08/25 06:05:21;;;;;;;2.65;1.52;;;14.30;99.90;;;;;;4940399;29;20059;-93
2021/08/25 06:07:47;;;;;;;3.75;1.80;;;14.30;99.90;;;;;;4924312;29;20035;-94
2021/08/25 06:10:12;;;;;;;3.05;1.80;;;14.30;99.90;;;;;;4928390;29;20034;-94
2021/08/25 06:17:34;;;;;;;3.40;1.85;;;14.40;99.90;;;;;;4910169;29;20052;-95
2021/08/25 06:20:00;;;;;;;4.55;1.80;;;14.30;99.90;;;;;;4892556;29;20486;-94
2021/08/25 06:22:25;;;;;;;3.08;1.90;;;14.40;99.90;;;;;;4909410;29;20060;-95
2021/08/25 06:24:51;;;;;;;3.05;1.75;;;14.40;99.90;;;;;;4891293;29;20062;-95
2021/08/25 06:27:17;;;;;;;2.00;1.70;;;14.40;99.90;;;;;;4887153;29;20029;-95
2021/08/25 06:29:43;;;;;;;3.08;1.83;;;14.40;99.90;;;;;;4887335;29;20029;-95
2021/08/25 06:32:11;;;;;;;4.60;2.10;;;14.40;99.90;;;;;;4887471;29;20061;-94
2021/08/25 06:34:37;;;;;;;3.30;2.17;;;14.40;99.90;;;;;;4889744;29;20057;-95
2021/08/25 06:37:03;;;;;;;3.72;2.50;;;14.40;99.90;;;;;;4904118;29;20044;-94
2021/08/25 06:39:29;;;;;;;2.55;1.70;;;14.40;99.90;;;;;;4885326;29;20119;-95
2021/08/25 06:41:55;;;;;;;5.07;2.15;;;14.40;99.90;;;;;;4884132;29;20032;-95
2021/08/25 06:44:20;;;;;;;4.85;2.10;;;14.40;99.90;;;;;;4884385;29;20032;-95
2021/08/25 06:46:48;;;;;;;3.72;2.30;;;14.40;99.90;;;;;;4883493;29;20025;-93
2021/08/25 06:49:14;;;;;;;4.65;2.22;;;14.40;99.90;;;;;;4870312;29;20028;-94
2021/08/25 06:51:40;;;;;;;4.80;2.25;;;14.40;99.90;;;;;;4883348;29;20053;-94
2021/08/25 06:54:06;;;;;;;2.30;1.80;;;14.50;99.90;;;;;;4898987;29;20040;-95
2021/08/25 06:56:32;;;;;;;4.80;2.13;;;14.50;99.90;;;;;;4896057;29;20032;-96
2021/08/25 06:59:00;;;;;;;2.15;1.63;;;14.50;99.90;;;;;;4883456;29;20024;-96
2021/08/25 07:01:27;;;;;;;3.95;1.63;;;14.50;99.90;;;;;;4883578;29;20053;-95
2021/08/25 07:03:52;;;;;;;1.35;1.23;;;14.60;99.90;;;;;;4883158;29;20056;-94
2021/08/25 07:06:21;;;;;;;3.08;1.25;;;14.70;99.90;;;;;;4886208;29;20036;-96
2021/08/25 07:08:47;;;;;;;1.48;1.05;;;14.70;99.90;;;;;;4888960;29;20040;-95
2021/08/25 07:11:13;;;;;;;2.10;1.40;;;14.80;99.90;;;;;;4883565;29;20084;-95
2021/08/25 07:13:39;;;;;;;1.13;1.02;;;14.80;99.90;;;;;;4883368;29;20029;-95
2021/08/25 07:16:07;;;;;;;1.23;1.13;;;14.90;99.90;;;;;;4879532;29;20049;-96
2021/08/25 07:18:34;;;;;;;3.13;1.33;;;14.90;99.90;;;;;;4872892;29;20048;-95
2021/08/25 07:21:00;;;;;;;1.50;1.17;;;14.90;99.90;;;;;;4871204;29;20183;-94
2021/08/25 07:23:25;;;;;;;3.28;1.10;;;14.80;99.90;;;;;;4866818;29;20115;-95
2021/08/25 07:25:54;;;;;;;1.95;1.30;;;14.90;99.90;;;;;;4867555;29;20033;-95
2021/08/25 07:28:20;;;;;;;2.80;1.20;;;14.90;99.90;;;;;;4881016;29;20033;-96
2021/08/25 07:30:45;;;;;;;1.27;1.13;;;14.90;99.90;;;;;;4866069;29;20037;-94
2021/08/25 07:33:13;;;;;;;1.58;1.10;;;14.90;99.90;;;;;;4877358;29;20035;-96
2021/08/25 07:35:40;;;;;;;1.80;1.48;;;14.90;99.90;;;;;;4884464;29;20033;-94
2021/08/25 07:38:05;;;;;;;3.47;1.85;;;14.90;99.90;;;;;;4876747;29;20029;-95
2021/08/25 07:40:32;;;;;;;3.45;1.60;;;14.90;99.90;;;;;;4883031;29;20406;-94
2021/08/25 07:42:58;;;;;;;2.00;1.65;;;15.00;99.90;;;;;;4883810;29;20056;-95
2021/08/25 07:45:24;;;;;;;3.92;1.58;;;15.00;99.90;;;;;;4875416;29;20433;-95
2021/08/25 07:47:49;;;;;;;2.53;2.10;;;15.00;99.90;;;;;;4868011;29;20033;-96
2021/08/25 07:50:15;;;;;;;4.90;3.20;;;15.00;99.90;;;;;;4870270;29;20025;-96
2021/08/25 07:52:41;;;;;;;4.45;3.60;;;15.00;99.90;;;;;;4872528;29;20053;-95
2021/08/25 07:55:12;;;;;;;3.47;3.17;;;15.00;99.90;;;;;;4878672;29;20033;-96
2021/08/25 07:57:38;;;;;;;6.95;3.55;;;15.00;99.90;;;;;;4867699;29;20028;-96
2021/08/25 08:00:04;;;;;;;6.57;4.38;;;15.00;99.90;;;;;;4866482;29;20116;-96
2021/08/25 08:02:30;;;;;;;5.53;4.10;;;15.00;99.90;;;;;;4869303;29;20029;-95
2021/08/25 08:04:56;;;;;;;6.32;4.22;;;15.10;99.90;;;;;;4863990;29;20025;-94
2021/08/25 08:07:21;;;;;;;8.05;4.68;;;15.10;99.90;;;;;;4879413;29;20081;-94
2021/08/25 08:09:47;;;;;;;10.18;5.28;;;15.10;99.90;;;;;;4866136;29;20088;-96
2021/08/25 08:12:14;;;;;;;6.70;4.38;;;15.10;99.90;;;;;;4865574;29;20033;-96
2021/08/25 08:14:40;;;;;;;6.10;3.97;;;15.10;99.90;;;;;;4866764;29;20040;-96
2021/08/25 08:17:06;;;;;;;6.25;4.18;;;15.10;99.90;;;;;;4883814;29;20056;-96
2021/08/25 08:19:33;;;;;;;5.70;4.03;;;15.10;99.90;;;;;;4875076;29;20033;-95
2021/08/25 08:22:01;;;;;;;4.90;3.55;;;15.20;99.90;;;;;;4877023;29;20025;-95
2021/08/25 08:24:28;;;;;;;5.20;3.78;;;15.20;99.90;;;;;;4867433;29;20036;-96
2021/08/25 08:26:54;;;;;;;5.38;3.95;;;15.20;99.90;;;;;;4866400;29;20033;-92
2021/08/25 08:29:21;;;;;;;5.18;4.00;;;15.30;99.90;;;;;;4866500;29;20077;-95
2021/08/25 08:31:47;;;;;;;5.18;3.47;;;15.30;99.90;;;;;;4866038;29;20099;-96
2021/08/25 08:34:13;;;;;;;5.32;3.67;;;15.30;99.90;;;;;;4865099;29;20025;-94
2021/08/25 08:36:39;;;;;;;5.07;3.78;;;15.30;99.90;;;;;;4865201;29;20040;-96
2021/08/25 08:39:05;;;;;;;4.60;3.67;;;15.40;99.90;;;;;;4864419;29;20025;-93
2021/08/25 08:41:31;;;;;;;5.50;3.53;;;15.40;99.90;;;;;;4864248;29;20494;-94
2021/08/25 08:43:57;;;;;;;5.25;3.78;;;15.40;99.90;;;;;;4864029;29;20043;-94
2021/08/25 08:46:23;;;;;;;5.38;3.92;;;15.40;99.90;;;;;;4864711;29;20029;-95
2021/08/25 08:48:51;;;;;;;5.50;3.25;;;15.50;99.90;;;;;;4866355;29;20036;-95
2021/08/25 08:51:20;;;;;;;4.25;2.75;;;15.60;99.90;;;;;;4866240;29;20490;-95
2021/08/25 08:54:00;;;;;;;;;;;;;;;;;;;;;
2021/08/25 08:56:26;;;;;;;2.58;2.38;;;15.80;99.90;;;;;;4881962;29;20116;-94
2021/08/25 08:58:54;;;;;;;4.72;2.60;;;15.80;99.90;;;;;;4864409;29;20072;-94
2021/08/25 09:01:20;;;;;;;4.25;2.95;;;15.80;99.90;;;;;;4863297;29;20482;-92
2021/08/25 09:03:45;;;;;;;3.13;2.83;;;15.90;99.90;;;;;;4862952;29;20109;-93
2021/08/25 09:06:12;;;;;;;4.07;2.40;;;15.90;99.90;;;;;;4862392;29;20025;-93
2021/08/25 09:08:46;;;;;;;4.63;2.90;;;15.90;99.90;;;;;;4863451;29;20037;-92
2021/08/25 09:11:16;;;;;;;4.57;2.20;;;16.00;99.90;;;;;;4861524;29;20037;-93
2021/08/25 09:13:48;;;;;;;3.35;2.80;;;16.00;99.90;;;;;;4862344;29;20025;-94
2021/08/25 09:16:47;;;;;;;6.47;3.20;;;16.10;99.90;;;;;;4870994;29;20056;-94
2021/08/25 09:19:16;;;;;;;4.35;3.47;;;16.10;99.90;;;;;;4881862;29;20069;-93
2021/08/25 09:21:45;;;;;;;4.05;3.10;;;16.20;99.90;;;;;;4881598;29;20043;-93
2021/08/25 09:24:13;;;;;;;3.15;2.83;;;16.30;99.90;;;;;;4882065;29;20553;-94
2021/08/25 09:27:07;;;;;;;2.78;2.53;;;16.30;99.90;;;;;;4881830;29;20039;-93
2021/08/25 09:29:34;;;;;;;5.97;2.92;;;16.40;99.90;;;;;;4890854;29;20495;-93
2021/08/25 09:31:59;;;;;;;3.55;2.88;;;16.40;99.90;;;;;;4882595;29;20024;-94
2021/08/25 09:34:33;;;;;;;4.78;2.58;;;16.40;99.90;;;;;;4882458;29;20035;-93
2021/08/25 09:37:11;;;;;;;4.88;3.22;;;16.50;99.90;;;;;;4885802;29;20292;-93
2021/08/25 09:39:45;;;;;;;4.78;2.70;;;16.50;99.90;;;;;;4881568;29;20116;-94
2021/08/25 09:42:13;;;;;;;4.30;3.17;;;16.60;99.90;;;;;;4882526;29;20025;-94
2021/08/25 09:44:39;;;;;;;3.60;3.10;;;16.50;99.90;;;;;;4884907;29;21023;-94
2021/08/25 09:47:05;;;;;;;6.53;3.00;;;16.50;99.90;;;;;;4872899;29;20092;-95
2021/08/25 09:49:31;;;;;;;4.63;3.35;;;16.50;99.90;;;;;;4887592;29;20025;-93
2021/08/25 09:51:56;;;;;;;3.22;2.80;;;16.50;99.90;;;;;;4886514;29;20451;-94
2021/08/25 09:54:22;;;;;;;4.03;2.53;;;16.60;99.90;;;;;;4889812;29;20051;-93
2021/08/25 09:56:52;;;;;;;2.78;2.25;;;16.60;99.90;;;;;;4895047;29;20032;-92
2021/08/25 09:59:19;;;;;;;5.70;2.58;;;16.70;99.90;;;;;;4893903;29;20025;-93
2021/08/25 10:01:46;;;;;;;3.90;2.58;;;16.70;99.90;;;;;;4885472;29;20095;-93
2021/08/25 10:04:16;;;;;;;5.47;2.45;;;16.80;99.90;;;;;;4885925;29;20036;-94
2021/08/25 10:06:47;;;;;;;3.53;2.80;;;16.90;99.90;;;;;;4885219;29;20127;-93
2021/08/25 10:09:13;;;;;;;;;;;16.90;99.90;;;;;;4887138;29;20048;-94
2021/08/25 10:11:59;;;;;;;3.30;2.90;;;17.00;99.90;;;;;;4887408;29;19908;-93
2021/08/25 10:14:30;;;;;;;3.92;2.70;;;17.10;99.90;;;;;;4885024;29;20061;-93
2021/08/25 10:16:55;;;;;;;4.90;3.45;;;17.20;99.90;;;;;;4885114;29;20060;-94
2021/08/25 10:19:39;;;;;;;5.43;3.13;;;17.20;99.90;;;;;;4886350;29;20036;-93
2021/08/25 10:22:14;;;;;;;4.47;2.92;;;17.30;99.90;;;;;;4885192;29;20039;-93
2021/08/25 10:24:49;;;;;;;5.20;3.60;;;17.40;99.90;;;;;;4887858;29;20029;-93
2021/08/25 10:27:15;;;;;;;3.78;3.05;;;17.40;99.90;;;;;;4885273;29;20032;-93
2021/08/25 10:30:02;;;;;;;6.43;3.20;;;17.50;99.90;;;;;;4884651;29;20025;-93
2021/08/25 10:32:29;;;;;;;3.38;3.08;;;17.50;99.90;;;;;;4884690;29;20063;-93
2021/08/25 10:35:13;;;;;;;3.90;3.25;;;17.60;99.90;;;;;;4884551;29;20036;-93
2021/08/25 10:37:40;;;;;;;3.05;2.83;;;17.70;99.90;;;;;;4884323;29;20431;-95
2021/08/25 10:40:08;;;;;;;4.00;3.50;;;17.70;99.90;;;;;;4884440;29;20029;-93
2021/08/25 10:42:54;;;;;;;3.17;2.85;;;17.80;99.90;;;;;;4884523;29;20095;-93
2021/08/25 10:45:39;;;;;;;3.22;2.92;;;17.80;99.90;;;;;;4884667;29;20439;-94
2021/08/25 10:48:09;;;;;;;5.40;3.40;;;17.80;99.90;;;;;;4887182;29;20031;-92
2021/08/25 10:50:53;;;;;;;4.30;3.50;;;17.90;99.90;;;;;;4895642;29;20475;-93
2021/08/25 10:53:28;;;;;;;7.85;3.92;;;17.90;99.90;;;;;;4886530;29;20060;-93
2021/08/25 10:56:18;;;;;;;5.43;3.92;;;17.80;99.90;;;;;;4885059;29;20055;-92
2021/08/25 10:58:55;;;;;;;3.45;2.83;;;17.80;99.90;;;;;;4885544;29;20024;-91
2021/08/25 11:01:30;;;;;;;3.30;2.25;;;17.90;99.90;;;;;;4885095;29;20037;-92
2021/08/25 11:04:02;;;;;;;3.10;2.50;;;17.90;99.90;;;;;;4885258;29;20025;-92
2021/08/25 11:06:32;;;;;;;4.40;2.83;;;17.90;99.90;;;;;;4884530;29;20032;-93
2021/08/25 11:09:16;;;;;;;3.75;3.15;;;18.00;99.90;;;;;;4884323;29;20053;-93
2021/08/25 11:11:55;;;;;;;3.10;2.60;;;18.00;99.90;;;;;;4887207;29;20036;-95
2021/08/25 11:14:27;;;;;;;3.47;2.92;;;18.00;99.90;;;;;;4884508;29;20040;-93
2021/08/25 11:16:55;;;;;;;2.92;2.35;;;18.10;99.90;;;;;;4883839;29;20056;-93
2021/08/25 11:19:21;;;;;;;3.15;2.42;;;18.20;99.90;;;;;;4883829;29;20479;-93
2021/08/25 11:21:47;;;;;;;4.88;3.40;;;18.10;99.90;;;;;;4883949;29;20119;-93
2021/08/25 11:24:13;;;;;;;7.65;4.15;;;18.20;99.90;;;;;;4883560;29;20025;-93
2021/08/25 11:26:39;;;;;;;8.02;4.90;;;18.20;99.90;;;;;;4883709;29;20035;-93
2021/08/25 11:29:19;;;;;;;5.75;4.22;;;18.20;99.90;;;;;;4884235;29;20482;-94
2021/08/25 11:31:45;;;;;;;4.57;3.65;;;18.30;99.90;;;;;;4884441;29;20064;-93
2021/08/25 11:34:14;;;;;;;5.75;3.70;;;18.40;99.90;;;;;;4889780;29;20483;-94
2021/08/25 11:37:03;;;;;;;5.15;3.75;;;18.50;99.90;;;;;;4895966;29;20078;-92
2021/08/25 11:39:30;;;;;;;4.68;3.33;;;18.50;99.90;;;;;;4891635;29;20056;-93
2021/08/25 11:41:57;;;;;;;5.93;3.83;;;18.60;99.90;;;;;;4884434;29;20073;-93
2021/08/25 11:44:44;;;;;;;6.07;4.10;;;18.70;99.90;;;;;;4883972;29;20068;-93
2021/08/25 11:47:16;;;;;;;7.18;5.07;;;18.80;99.90;;;;;;4884487;29;20037;-93
2021/08/25 11:49:44;;;;;;;7.13;4.18;;;18.90;99.90;;;;;;4887394;29;20038;-94
2021/08/25 11:52:10;;;;;;;7.78;5.22;;;18.90;99.90;;;;;;4885965;29;20029;-93
2021/08/25 11:54:40;;;;;;;7.68;5.60;;;18.90;99.90;;;;;;4886530;29;20029;-93
2021/08/25 11:57:08;;;;;;;9.48;5.43;;;18.90;99.90;;;;;;4883935;29;20479;-94
2021/08/25 11:59:54;;;;;;;7.35;5.47;;;18.80;99.90;;;;;;4883563;29;20029;-93
2021/08/25 12:02:20;;;;;;;5.10;4.55;;;18.80;99.90;;;;;;4894783;29;20032;-94
2021/08/25 12:04:46;;;;;;;6.40;4.30;;;18.80;99.90;;;;;;4890906;29;20036;-93
2021/08/25 12:07:11;;;;;;;7.22;5.90;;;18.70;99.90;;;;;;4884608;29;20033;-94
2021/08/25 12:09:37;;;;;;;12.93;6.15;;;18.80;99.90;;;;;;4884441;29;20089;-94
2021/08/25 12:12:04;;;;;;;10.13;6.30;;;18.70;99.90;;;;;;4884076;29;20123;-93
2021/08/25 12:14:53;;;;;;;6.32;5.45;;;18.70;99.90;;;;;;4884121;29;20037;-94
2021/08/25 12:17:20;;;;;;;10.02;5.72;;;18.80;99.90;;;;;;4883502;29;20108;-93
2021/08/25 12:20:03;;;;;;;6.45;4.75;;;18.90;99.90;;;;;;4883034;29;20119;-94
2021/08/25 12:22:30;;;;;;;6.78;5.40;;;18.90;99.90;;;;;;4883195;29;20033;-95
2021/08/25 12:24:59;;;;;;;7.07;5.35;;;19.00;99.90;;;;;;4882923;29;20028;-92
2021/08/25 12:27:25;;;;;;;9.60;5.90;;;19.00;99.90;;;;;;4882625;29;20076;-93
2021/08/25 12:29:51;;;;;;;9.75;6.05;;;19.20;99.90;;;;;;4883887;29;20020;-93
2021/08/25 12:32:17;;;;;;;9.52;5.93;;;19.20;99.90;;;;;;4882744;29;20036;-93
2021/08/25 12:35:01;;;;;;;9.25;5.60;;;19.30;99.50;;;;;;4883782;29;20041;-93
2021/08/25 12:37:46;;;;;;;4.47;3.33;;;19.40;99.30;;;;;;4886311;29;20028;-92
2021/08/25 12:40:12;;;;;;;8.00;3.70;;;19.80;98.90;;;;;;4901307;29;20035;-93
2021/08/25 12:42:38;;;;;;;4.15;3.05;;;20.00;98.10;;;;;;4886351;29;20024;-93
2021/08/25 12:45:04;;;;;;;4.55;3.75;;;20.30;97.20;;;;;;4888014;29;20498;-94
2021/08/25 12:47:32;;;;;;;4.53;3.53;;;20.60;96.30;;;;;;4886718;29;20037;-94
2021/08/25 12:49:57;;;;;;;7.47;5.15;;;20.70;95.60;;;;;;4886279;29;20036;-94
2021/08/25 12:52:23;;;;;;;7.07;4.25;;;20.80;95.20;;;;;;4887326;29;20021;-94
2021/08/25 12:54:49;;;;;;;5.85;4.43;;;20.90;95.00;;;;;;4886513;29;20052;-94
2021/08/25 12:57:17;;;;;;;6.47;4.97;;;21.00;94.80;;;;;;4886934;29;20076;-94
2021/08/25 12:59:43;;;;;;;6.55;5.20;;;21.10;94.50;;;;;;4886782;29;20482;-93
2021/08/25 13:02:09;;;;;;;6.75;5.72;;;21.20;94.40;;;;;;4886395;29;20040;-94
2021/08/25 13:04:36;;;;;;;6.95;5.60;;;21.20;94.00;;;;;;4886495;29;20132;-94
2021/08/25 13:07:01;;;;;;;7.22;4.63;;;21.20;93.50;;;;;;4886452;29;20028;-93
2021/08/25 13:09:27;;;;;;;8.57;4.70;;;21.50;93.10;;;;;;4885536;29;20044;-94
2021/08/25 13:11:53;;;;;;;5.32;4.68;;;21.70;92.60;;;;;;4886118;29;20041;-95
2021/08/25 13:14:18;;;;;;;4.70;3.80;;;21.80;91.70;;;;;;4887541;29;20386;-94
2021/08/25 13:16:44;;;;;;;5.18;4.45;;;21.90;91.60;;;;;;4894944;29;20080;-94
2021/08/25 13:19:10;;;;;;;6.38;4.10;;;22.00;91.30;;;;;;4903772;29;20431;-94
2021/08/25 13:21:36;;;;;;;5.55;4.40;;;21.90;90.80;;;;;;4891828;29;20037;-95
2021/08/25 13:24:02;;;;;;;5.10;3.83;;;21.90;90.50;;;;;;4891060;29;20073;-94
2021/08/25 13:26:27;;;;;;;6.18;3.97;;;22.00;90.30;;;;;;4890399;29;20028;-93
2021/08/25 13:28:53;;;;;;;4.75;3.58;;;22.20;90.00;;;;;;4890088;29;20380;-94
2021/08/25 13:31:19;;;;;;;5.57;3.85;;;22.50;89.30;;;;;;4890300;29;20047;-93
2021/08/25 13:33:45;;;;;;;4.93;4.00;;;22.70;88.10;;;;;;4889048;29;20033;-93
2021/08/25 13:36:11;;;;;;;4.72;3.50;;;22.80;87.10;;;;;;4890476;29;20044;-94
2021/08/25 13:38:39;;;;;;;4.45;3.47;;;23.10;86.80;;;;;;4891039;29;20032;-94
2021/08/25 13:41:05;;;;;;;6.20;3.95;;;23.20;85.70;;;;;;4891735;29;20029;-96
2021/08/25 13:43:34;;;;;;;5.50;3.42;;;23.40;83.80;;;;;;4892520;29;20100;-96
2021/08/25 13:46:02;;;;;;;10.05;3.65;;;23.60;83.60;;;;;;4891689;29;20035;-95
2021/08/25 13:48:30;;;;;;;6.30;3.50;;;23.90;82.90;;;;;;4889644;29;20024;-95